Time;durP1;ratioP1;P1;durP2;ratioP2;P2;SDS_P1;SDS_P2;PMS_P1;PMS_P2;Temp;Humidity;BMP_temperature;BMP_pressure;BME280_temperature;BME280_humidity;BME280_pressure;Samples;Min_cycle;Max_cycle;Signal;HPM_P1;HPM_P2
2021/07/11 00:00:46;;;;;;;18.83;17.53;;;;;;;;;;5073556;28;24417;-54
2021/07/11 00:03:11;;;;;;;17.53;16.33;;;;;;;;;;5073737;28;24419;-54
2021/07/11 00:05:36;;;;;;;17.60;16.50;;;;;;;;;;5078130;28;24753;-54
2021/07/11 00:08:01;;;;;;;17.27;16.00;;;;;;;;;;5095232;28;24444;-54
2021/07/11 00:10:27;;;;;;;16.60;15.50;;;;;;;;;;5081838;28;24868;-54
2021/07/11 00:12:52;;;;;;;17.23;16.13;;;;;;;;;;5082938;28;24468;-54
2021/07/11 00:15:18;;;;;;;17.03;15.93;;;;;;;;;;5073522;28;24781;-54
2021/07/11 00:17:44;;;;;;;16.75;15.55;;;;;;;;;;5099756;28;25013;-54
2021/07/11 00:20:10;;;;;;;17.17;16.07;;;;;;;;;;5094764;28;24449;-55
2021/07/11 00:22:36;;;;;;;15.73;14.73;;;;;;;;;;5081272;28;24415;-54
2021/07/11 00:25:02;;;;;;;17.80;16.60;;;;;;;;;;5087815;28;24475;-54
2021/07/11 00:27:28;;;;;;;16.60;15.50;;;;;;;;;;5070022;28;24514;-54
2021/07/11 00:29:53;;;;;;;17.77;16.57;;;;;;;;;;5077239;28;24533;-54
2021/07/11 00:32:18;;;;;;;16.63;15.52;;;;;;;;;;5084018;28;24773;-54
2021/07/11 00:34:43;;;;;;;16.57;15.47;;;;;;;;;;5073072;28;24409;-54
2021/07/11 00:37:08;;;;;;;16.40;15.20;;;;;;;;;;5092262;28;25271;-54
2021/07/11 00:39:33;;;;;;;17.63;16.43;;;;;;;;;;5082459;28;24407;-54
2021/07/11 00:41:59;;;;;;;15.63;14.63;;;;;;;;;;5082067;28;25067;-54
2021/07/11 00:44:24;;;;;;;15.83;14.73;;;;;;;;;;5075741;28;24402;-54
2021/07/11 00:46:49;;;;;;;16.07;14.90;;;;;;;;;;5091486;28;24446;-54
2021/07/11 00:49:15;;;;;;;14.03;13.13;;;;;;;;;;5067147;28;24434;-55
2021/07/11 00:51:40;;;;;;;13.37;12.47;;;;;;;;;;5079214;28;25191;-54
2021/07/11 00:54:05;;;;;;;16.00;14.90;;;;;;;;;;5085341;28;24410;-54
2021/07/11 00:56:30;;;;;;;15.73;14.73;;;;;;;;;;5082025;28;24419;-55
2021/07/11 00:58:56;;;;;;;13.67;12.87;;;;;;;;;;5072273;28;25873;-54
2021/07/11 01:01:32;;;;;;;14.90;13.88;;;;;;;;;;5079606;28;25081;-54
2021/07/11 01:04:01;;;;;;;15.50;14.40;;;;;;;;;;5079644;28;24423;-55
2021/07/11 01:06:27;;;;;;;14.18;13.18;;;;;;;;;;5074654;28;25006;-54
2021/07/11 01:08:57;;;;;;;15.00;14.00;;;;;;;;;;5076195;28;24501;-55
2021/07/11 01:11:23;;;;;;;14.00;13.10;;;;;;;;;;5093019;28;24441;-54
2021/07/11 01:13:50;;;;;;;13.73;12.73;;;;;;;;;;5086466;28;24422;-54
2021/07/11 01:16:16;;;;;;;14.70;13.70;;;;;;;;;;5081523;28;24477;-54
2021/07/11 01:18:42;;;;;;;13.70;12.80;;;;;;;;;;5077261;28;24432;-54
2021/07/11 01:21:11;;;;;;;15.30;14.30;;;;;;;;;;5089525;28;24964;-54
2021/07/11 01:23:39;;;;;;;14.93;14.02;;;;;;;;;;5071597;28;24433;-54
2021/07/11 01:26:06;;;;;;;13.82;12.93;;;;;;;;;;5069629;28;24422;-54
2021/07/11 01:28:31;;;;;;;14.98;13.98;;;;;;;;;;5087028;28;24501;-54
2021/07/11 01:30:56;;;;;;;16.17;14.97;;;;;;;;;;5088653;28;24599;-54
2021/07/11 01:33:22;;;;;;;14.38;13.38;;;;;;;;;;5088105;28;24490;-54
2021/07/11 01:35:48;;;;;;;12.90;12.10;;;;;;;;;;5078908;28;24493;-54
2021/07/11 01:38:13;;;;;;;14.73;13.67;;;;;;;;;;5088489;28;24818;-55
2021/07/11 01:40:39;;;;;;;14.37;13.37;;;;;;;;;;5106155;28;24413;-54
2021/07/11 01:43:05;;;;;;;15.77;14.68;;;;;;;;;;5086261;28;24473;-55
2021/07/11 01:45:31;;;;;;;13.00;12.20;;;;;;;;;;5081773;28;24920;-55
2021/07/11 01:47:56;;;;;;;14.95;13.85;;;;;;;;;;5086018;28;24430;-54
2021/07/11 01:50:22;;;;;;;14.77;13.77;;;;;;;;;;5073300;28;24480;-55
2021/07/11 01:52:48;;;;;;;12.00;11.20;;;;;;;;;;5069751;28;24411;-54
2021/07/11 01:55:14;;;;;;;14.13;13.02;;;;;;;;;;5067054;28;24421;-54
2021/07/11 01:57:39;;;;;;;12.70;11.80;;;;;;;;;;5093887;28;24547;-54
2021/07/11 02:00:06;;;;;;;13.18;12.25;;;;;;;;;;5071845;28;24418;-55
2021/07/11 02:02:31;;;;;;;13.70;12.80;;;;;;;;;;5090226;28;24473;-54
2021/07/11 02:04:56;;;;;;;14.23;13.23;;;;;;;;;;5081686;28;24486;-54
2021/07/11 02:07:21;;;;;;;13.13;12.23;;;;;;;;;;5078827;28;24438;-54
2021/07/11 02:09:46;;;;;;;13.55;12.65;;;;;;;;;;5085637;28;25010;-54
2021/07/11 02:12:12;;;;;;;14.80;13.80;;;;;;;;;;5102159;28;24463;-55
2021/07/11 02:14:38;;;;;;;12.80;12.00;;;;;;;;;;5083349;28;24442;-54
2021/07/11 02:17:12;;;;;;;12.60;11.80;;;;;;;;;;5089927;28;24841;-55
2021/07/11 02:19:38;;;;;;;12.90;12.10;;;;;;;;;;5086174;28;24406;-54
2021/07/11 02:22:04;;;;;;;13.10;12.20;;;;;;;;;;5091551;28;24792;-54
2021/07/11 02:24:34;;;;;;;11.95;11.15;;;;;;;;;;5084213;28;24982;-54
2021/07/11 02:27:00;;;;;;;12.70;11.90;;;;;;;;;;5108896;28;24445;-54
2021/07/11 02:29:27;;;;;;;11.97;11.17;;;;;;;;;;5079689;28;24470;-55
2021/07/11 02:31:53;;;;;;;13.55;12.65;;;;;;;;;;5080577;28;24474;-54
2021/07/11 02:34:18;;;;;;;13.43;12.53;;;;;;;;;;5070020;28;24508;-54
2021/07/11 02:36:45;;;;;;;12.93;12.03;;;;;;;;;;5081478;28;24965;-54
2021/07/11 02:39:12;;;;;;;13.07;12.18;;;;;;;;;;5088748;28;24410;-54
2021/07/11 02:41:39;;;;;;;11.63;10.93;;;;;;;;;;5089660;28;24425;-54
2021/07/11 02:44:08;;;;;;;11.70;11.00;;;;;;;;;;5076999;28;24426;-55
2021/07/11 02:46:39;;;;;;;13.13;12.13;;;;;;;;;;5079017;28;24426;-55
2021/07/11 02:49:05;;;;;;;11.77;11.00;;;;;;;;;;5091915;28;24406;-55
2021/07/11 02:51:34;;;;;;;11.03;10.33;;;;;;;;;;5094000;28;24526;-54
2021/07/11 02:53:59;;;;;;;12.27;11.48;;;;;;;;;;5069898;28;24414;-54
2021/07/11 02:56:25;;;;;;;11.07;10.27;;;;;;;;;;5069491;28;24509;-54
2021/07/11 02:58:52;;;;;;;11.68;10.98;;;;;;;;;;5086148;28;24419;-54
2021/07/11 03:01:17;;;;;;;11.55;10.75;;;;;;;;;;5090342;28;24444;-54
2021/07/11 03:03:43;;;;;;;12.02;11.23;;;;;;;;;;5088166;28;24980;-54
2021/07/11 03:06:10;;;;;;;11.07;10.27;;;;;;;;;;5085685;28;25030;-55
2021/07/11 03:08:35;;;;;;;12.05;11.25;;;;;;;;;;5081964;28;24991;-54
2021/07/11 03:11:00;;;;;;;11.73;11.00;;;;;;;;;;5076333;28;24488;-54
2021/07/11 03:13:25;;;;;;;12.63;11.82;;;;;;;;;;5085823;28;24506;-55
2021/07/11 03:15:51;;;;;;;11.90;11.10;;;;;;;;;;5088723;28;24436;-54
2021/07/11 03:18:17;;;;;;;11.77;11.07;;;;;;;;;;5090039;28;24999;-54
2021/07/11 03:20:45;;;;;;;10.80;10.10;;;;;;;;;;5085355;28;24418;-55
2021/07/11 03:23:10;;;;;;;10.75;9.95;;;;;;;;;;5080315;28;24509;-55
2021/07/11 03:25:36;;;;;;;10.33;9.63;;;;;;;;;;5073291;28;24498;-55
2021/07/11 03:28:05;;;;;;;10.00;9.40;;;;;;;;;;5082007;28;25316;-54
2021/07/11 03:30:36;;;;;;;10.60;9.80;;;;;;;;;;5092012;28;24457;-55
2021/07/11 03:33:02;;;;;;;10.55;9.77;;;;;;;;;;5094970;28;24464;-54
2021/07/11 03:35:35;;;;;;;10.85;10.15;;;;;;;;;;5086006;28;24464;-55
2021/07/11 03:38:01;;;;;;;9.80;9.20;;;;;;;;;;5078003;28;24414;-55
2021/07/11 03:40:29;;;;;;;9.00;8.40;;;;;;;;;;5086816;28;24483;-54
2021/07/11 03:42:55;;;;;;;9.27;8.67;;;;;;;;;;5090020;28;24593;-54
2021/07/11 03:45:21;;;;;;;9.13;8.52;;;;;;;;;;5085660;28;24428;-54
2021/07/11 03:47:54;;;;;;;9.50;8.90;;;;;;;;;;5096047;28;24470;-55
2021/07/11 03:50:23;;;;;;;8.40;7.80;;;;;;;;;;5076503;28;24484;-54
2021/07/11 03:52:51;;;;;;;7.75;7.25;;;;;;;;;;5081632;28;24793;-55
2021/07/11 03:55:17;;;;;;;7.70;7.20;;;;;;;;;;5073106;28;24419;-54
2021/07/11 03:57:43;;;;;;;7.27;6.77;;;;;;;;;;5078183;28;24433;-54
2021/07/11 04:00:09;;;;;;;7.63;7.13;;;;;;;;;;5080738;28;24501;-54
2021/07/11 04:02:35;;;;;;;7.90;7.40;;;;;;;;;;5070442;28;24506;-55
2021/07/11 04:05:01;;;;;;;8.48;7.88;;;;;;;;;;5076924;28;24440;-55
2021/07/11 04:07:27;;;;;;;7.30;6.80;;;;;;;;;;5082432;28;24531;-55
2021/07/11 04:09:53;;;;;;;9.90;9.20;;;;;;;;;;5099443;28;24442;-55
2021/07/11 04:12:18;;;;;;;8.70;8.10;;;;;;;;;;5090812;28;24470;-54
2021/07/11 04:14:43;;;;;;;9.68;8.98;;;;;;;;;;5091680;28;25213;-55
2021/07/11 04:17:09;;;;;;;9.17;8.57;;;;;;;;;;5088005;28;24465;-55
2021/07/11 04:19:35;;;;;;;8.43;7.83;;;;;;;;;;5072061;28;24426;-55
2021/07/11 04:22:00;;;;;;;8.35;7.85;;;;;;;;;;5076484;28;24421;-55
2021/07/11 04:24:26;;;;;;;7.90;7.40;;;;;;;;;;5078213;28;24502;-54
2021/07/11 04:26:53;;;;;;;8.10;7.60;;;;;;;;;;5085337;28;24551;-54
2021/07/11 04:29:18;;;;;;;7.40;6.97;;;;;;;;;;5097689;28;24829;-54
2021/07/11 04:31:44;;;;;;;7.47;7.07;;;;;;;;;;5084453;28;25035;-55
2021/07/11 04:34:26;;;;;;;6.72;6.32;;;;;;;;;;5076521;28;24418;-55
2021/07/11 04:36:52;;;;;;;6.80;6.40;;;;;;;;;;5076884;28;25033;-55
2021/07/11 04:39:17;;;;;;;6.80;6.30;;;;;;;;;;5093753;28;24457;-55
2021/07/11 04:41:43;;;;;;;7.33;6.83;;;;;;;;;;5090792;28;24417;-55
2021/07/11 04:44:08;;;;;;;7.35;6.85;;;;;;;;;;5093832;28;24420;-54
2021/07/11 04:46:33;;;;;;;7.50;7.00;;;;;;;;;;5095501;28;25005;-55
2021/07/11 04:48:58;;;;;;;8.00;7.50;;;;;;;;;;5104896;28;24501;-55
2021/07/11 04:51:24;;;;;;;8.10;7.60;;;;;;;;;;5108312;28;24834;-55
2021/07/11 04:53:49;;;;;;;7.17;6.77;;;;;;;;;;5103195;28;24409;-55
2021/07/11 04:56:14;;;;;;;9.40;8.80;;;;;;;;;;5095760;28;24450;-55
2021/07/11 04:58:39;;;;;;;7.80;7.30;;;;;;;;;;5092966;28;24420;-55
2021/07/11 05:01:04;;;;;;;7.10;6.60;;;;;;;;;;5106427;28;24427;-55
2021/07/11 05:03:29;;;;;;;6.60;6.15;;;;;;;;;;5097494;28;24513;-55
2021/07/11 05:05:54;;;;;;;6.22;5.82;;;;;;;;;;5085286;28;24780;-55
2021/07/11 05:08:20;;;;;;;6.88;6.45;;;;;;;;;;5091200;28;24479;-55
2021/07/11 05:10:45;;;;;;;6.00;5.50;;;;;;;;;;5081420;28;24529;-55
2021/07/11 05:13:10;;;;;;;7.27;6.77;;;;;;;;;;5085606;28;24411;-55
2021/07/11 05:15:35;;;;;;;5.57;5.27;;;;;;;;;;5071921;28;24454;-55
2021/07/11 05:18:00;;;;;;;6.40;6.10;;;;;;;;;;5071296;28;24989;-55
2021/07/11 05:20:26;;;;;;;6.10;5.70;;;;;;;;;;5077740;28;25239;-55
2021/07/11 05:22:51;;;;;;;5.50;5.20;;;;;;;;;;5098307;28;25208;-55
2021/07/11 05:25:16;;;;;;;6.00;5.60;;;;;;;;;;5102834;28;24428;-55
2021/07/11 05:27:41;;;;;;;5.60;5.10;;;;;;;;;;5077444;28;24447;-55
2021/07/11 05:30:07;;;;;;;5.80;5.40;;;;;;;;;;5083333;28;24976;-55
2021/07/11 05:32:32;;;;;;;5.87;5.37;;;;;;;;;;5089910;28;24402;-55
2021/07/11 05:34:57;;;;;;;5.40;5.00;;;;;;;;;;5078675;28;24986;-54
2021/07/11 05:37:22;;;;;;;5.00;4.70;;;;;;;;;;5069018;28;24410;-55
2021/07/11 05:39:47;;;;;;;4.60;4.30;;;;;;;;;;5082490;28;24421;-55
2021/07/11 05:42:12;;;;;;;4.70;4.30;;;;;;;;;;5098564;28;24414;-56
2021/07/11 05:44:37;;;;;;;4.60;4.10;;;;;;;;;;5084817;28;24426;-56
2021/07/11 05:47:03;;;;;;;3.90;3.70;;;;;;;;;;5081796;28;24465;-56
2021/07/11 05:49:28;;;;;;;4.30;4.10;;;;;;;;;;5076055;28;24777;-56
2021/07/11 05:51:53;;;;;;;3.80;3.60;;;;;;;;;;5082209;28;24441;-57
2021/07/11 05:54:18;;;;;;;4.27;4.03;;;;;;;;;;5080344;28;24471;-56
2021/07/11 05:56:43;;;;;;;4.60;4.30;;;;;;;;;;5074826;28;24440;-55
2021/07/11 05:59:09;;;;;;;4.20;3.90;;;;;;;;;;5074964;28;24418;-55
2021/07/11 06:01:34;;;;;;;4.57;4.28;;;;;;;;;;5102672;28;24495;-55
2021/07/11 06:03:59;;;;;;;4.95;4.55;;;;;;;;;;5075347;28;24426;-55
2021/07/11 06:06:24;;;;;;;4.50;4.20;;;;;;;;;;5091533;28;24843;-55
2021/07/11 06:08:49;;;;;;;4.60;4.30;;;;;;;;;;5083500;28;24495;-55
2021/07/11 06:11:15;;;;;;;5.20;4.90;;;;;;;;;;5078857;28;24999;-55
2021/07/11 06:13:40;;;;;;;5.13;4.73;;;;;;;;;;5083242;28;24978;-55
2021/07/11 06:16:05;;;;;;;4.73;4.43;;;;;;;;;;5077704;28;25048;-55
2021/07/11 06:18:30;;;;;;;5.20;4.80;;;;;;;;;;5096905;28;24753;-55
2021/07/11 06:20:55;;;;;;;5.10;4.70;;;;;;;;;;5086346;28;24421;-55
2021/07/11 06:23:20;;;;;;;4.90;4.60;;;;;;;;;;5069959;28;24426;-55
2021/07/11 06:25:46;;;;;;;4.97;4.67;;;;;;;;;;5092382;28;24433;-55
2021/07/11 06:28:11;;;;;;;5.20;4.90;;;;;;;;;;5083403;28;24999;-55
2021/07/11 06:30:36;;;;;;;5.17;4.77;;;;;;;;;;5084679;28;24443;-55
2021/07/11 06:33:01;;;;;;;4.75;4.45;;;;;;;;;;5095968;28;24459;-56
2021/07/11 06:35:26;;;;;;;5.00;4.70;;;;;;;;;;5075659;28;24407;-54
2021/07/11 06:37:52;;;;;;;4.50;4.10;;;;;;;;;;5069607;28;24425;-54
2021/07/11 06:40:18;;;;;;;4.73;4.43;;;;;;;;;;5085007;28;25117;-55
2021/07/11 06:42:43;;;;;;;5.03;4.73;;;;;;;;;;5077188;28;24464;-54
2021/07/11 06:45:09;;;;;;;4.30;4.10;;;;;;;;;;5073062;28;24468;-54
2021/07/11 06:47:35;;;;;;;4.87;4.57;;;;;;;;;;5073825;28;24428;-54
2021/07/11 06:50:00;;;;;;;4.97;4.65;;;;;;;;;;5069461;28;25069;-54
2021/07/11 06:52:26;;;;;;;4.90;4.50;;;;;;;;;;5079140;28;24497;-56
2021/07/11 06:54:51;;;;;;;4.70;4.40;;;;;;;;;;5070553;28;24414;-55
2021/07/11 06:57:17;;;;;;;4.50;4.20;;;;;;;;;;5068902;28;24502;-56
2021/07/11 06:59:43;;;;;;;4.18;3.97;;;;;;;;;;5076980;28;24529;-55
2021/07/11 07:02:08;;;;;;;5.00;4.60;;;;;;;;;;5073658;28;24921;-57
2021/07/11 07:04:33;;;;;;;5.00;4.70;;;;;;;;;;5076805;28;24414;-56
2021/07/11 07:06:58;;;;;;;4.22;3.92;;;;;;;;;;5068903;28;24457;-55
2021/07/11 07:09:24;;;;;;;4.90;4.60;;;;;;;;;;5070711;28;24986;-55
2021/07/11 07:11:49;;;;;;;4.28;3.97;;;;;;;;;;5072108;28;24426;-57
2021/07/11 07:14:14;;;;;;;4.22;4.00;;;;;;;;;;5066548;28;24486;-56
2021/07/11 07:16:39;;;;;;;4.17;3.77;;;;;;;;;;5086286;28;24789;-55
2021/07/11 07:19:04;;;;;;;3.90;3.70;;;;;;;;;;5078209;28;24464;-56
2021/07/11 07:21:29;;;;;;;3.80;3.50;;;;;;;;;;5068734;28;24387;-56
2021/07/11 07:23:54;;;;;;;3.78;3.47;;;;;;;;;;5068461;28;24405;-56
2021/07/11 07:26:20;;;;;;;3.60;3.40;;;;;;;;;;5068139;28;24524;-55
2021/07/11 07:28:45;;;;;;;3.80;3.60;;;;;;;;;;5081659;28;24449;-56
2021/07/11 07:31:10;;;;;;;3.70;3.50;;;;;;;;;;5087780;28;24529;-56
2021/07/11 07:33:35;;;;;;;4.15;3.85;;;;;;;;;;5069007;28;24413;-55
2021/07/11 07:36:00;;;;;;;4.10;3.80;;;;;;;;;;5078302;28;24548;-55
2021/07/11 07:38:25;;;;;;;3.60;3.40;;;;;;;;;;5065232;28;24415;-54
2021/07/11 07:40:50;;;;;;;3.05;2.90;;;;;;;;;;5067414;28;24484;-55
2021/07/11 07:43:16;;;;;;;3.40;3.20;;;;;;;;;;5074655;28;24406;-54
2021/07/11 07:45:41;;;;;;;3.00;2.80;;;;;;;;;;5075012;28;24419;-56
2021/07/11 07:48:08;;;;;;;3.77;3.57;;;;;;;;;;5067550;28;24507;-55
2021/07/11 07:50:33;;;;;;;3.20;3.00;;;;;;;;;;5066261;28;24518;-54
2021/07/11 07:52:58;;;;;;;3.23;3.03;;;;;;;;;;5068255;28;24529;-54
2021/07/11 07:55:23;;;;;;;4.00;3.70;;;;;;;;;;5073253;28;24413;-54
2021/07/11 07:57:48;;;;;;;3.67;3.37;;;;;;;;;;5087456;28;24418;-54
2021/07/11 08:00:14;;;;;;;3.20;3.00;;;;;;;;;;5077730;28;24513;-53
2021/07/11 08:02:40;;;;;;;3.10;2.90;;;;;;;;;;5075710;28;25086;-54
2021/07/11 08:05:05;;;;;;;3.20;3.00;;;;;;;;;;5067194;28;24956;-54
2021/07/11 08:07:30;;;;;;;3.00;2.80;;;;;;;;;;5074201;28;24424;-54
2021/07/11 08:09:55;;;;;;;3.40;3.20;;;;;;;;;;5085531;28;24430;-53
2021/07/11 08:12:21;;;;;;;3.27;3.07;;;;;;;;;;5078960;28;24434;-54
2021/07/11 08:14:46;;;;;;;3.10;2.90;;;;;;;;;;5067841;28;24515;-54
2021/07/11 08:17:11;;;;;;;3.00;2.80;;;;;;;;;;5067161;28;24496;-54
2021/07/11 08:19:36;;;;;;;3.20;3.00;;;;;;;;;;5069162;28;25142;-53
2021/07/11 08:22:02;;;;;;;3.43;3.23;;;;;;;;;;5069896;28;24521;-54
2021/07/11 08:24:27;;;;;;;3.10;2.90;;;;;;;;;;5067886;28;24971;-54
2021/07/11 08:26:52;;;;;;;3.30;3.10;;;;;;;;;;5067641;28;24425;-52
2021/07/11 08:29:17;;;;;;;3.03;2.83;;;;;;;;;;5067794;28;24430;-53
2021/07/11 08:31:43;;;;;;;2.90;2.70;;;;;;;;;;5067645;28;24430;-51
2021/07/11 08:34:08;;;;;;;3.00;2.80;;;;;;;;;;5084253;28;24426;-53
2021/07/11 08:36:33;;;;;;;3.40;3.10;;;;;;;;;;5080387;28;24800;-52
2021/07/11 08:38:59;;;;;;;3.00;2.80;;;;;;;;;;5067238;28;24411;-52
2021/07/11 08:41:25;;;;;;;3.30;3.10;;;;;;;;;;5067525;28;24504;-52
2021/07/11 08:43:51;;;;;;;3.00;2.80;;;;;;;;;;5081927;28;24445;-52
2021/07/11 08:46:16;;;;;;;3.03;2.93;;;;;;;;;;5067203;28;24419;-53
2021/07/11 08:48:42;;;;;;;2.70;2.60;;;;;;;;;;5068315;28;24468;-53
2021/07/11 08:51:08;;;;;;;2.80;2.70;;;;;;;;;;5069410;28;24842;-52
2021/07/11 08:53:33;;;;;;;2.80;2.70;;;;;;;;;;5066895;28;24441;-53
2021/07/11 08:56:01;;;;;;;3.20;3.00;;;;;;;;;;5066784;28;24422;-54
2021/07/11 08:58:27;;;;;;;2.80;2.60;;;;;;;;;;5066648;28;24427;-53
2021/07/11 09:00:52;;;;;;;2.67;2.58;;;;;;;;;;5069005;28;24913;-53
2021/07/11 09:03:17;;;;;;;3.00;2.80;;;;;;;;;;5073395;28;24444;-53
2021/07/11 09:05:43;;;;;;;3.05;2.85;;;;;;;;;;5067251;28;24418;-52
2021/07/11 09:08:12;;;;;;;3.10;3.00;;;;;;;;;;5075007;28;24422;-53
2021/07/11 09:10:39;;;;;;;2.90;2.70;;;;;;;;;;5078905;28;24755;-53
2021/07/11 09:13:09;;;;;;;3.28;3.08;;;;;;;;;;5084503;28;24777;-53
2021/07/11 09:15:35;;;;;;;3.20;2.90;;;;;;;;;;5079616;28;24472;-52
2021/07/11 09:18:01;;;;;;;3.13;2.92;;;;;;;;;;5072207;28;24798;-53
2021/07/11 09:20:26;;;;;;;3.00;2.80;;;;;;;;;;5070759;28;24418;-53
2021/07/11 09:22:58;;;;;;;3.20;3.00;;;;;;;;;;5064491;28;24879;-53
2021/07/11 09:25:24;;;;;;;3.00;2.83;;;;;;;;;;5070448;28;24401;-53
2021/07/11 09:27:49;;;;;;;3.00;2.90;;;;;;;;;;5080887;28;24509;-53
2021/07/11 09:30:15;;;;;;;3.10;3.00;;;;;;;;;;5090576;28;24525;-53
2021/07/11 09:32:40;;;;;;;3.20;3.00;;;;;;;;;;5080033;28;24414;-53
2021/07/11 09:35:15;;;;;;;3.20;3.00;;;;;;;;;;5070691;28;24399;-53
2021/07/11 09:37:42;;;;;;;3.00;2.80;;;;;;;;;;5075549;28;25003;-53
2021/07/11 09:40:08;;;;;;;2.80;2.60;;;;;;;;;;5070502;28;24569;-53
2021/07/11 09:42:35;;;;;;;3.03;2.83;;;;;;;;;;5075029;28;24568;-53
2021/07/11 09:45:01;;;;;;;2.60;2.50;;;;;;;;;;5075466;28;24447;-53
2021/07/11 09:47:28;;;;;;;2.80;2.60;;;;;;;;;;5072017;28;24517;-53
2021/07/11 09:50:00;;;;;;;3.00;2.80;;;;;;;;;;5070983;28;24769;-53
2021/07/11 09:52:25;;;;;;;3.00;2.80;;;;;;;;;;5071053;28;24492;-53
2021/07/11 09:55:09;;;;;;;3.10;2.90;;;;;;;;;;5086312;28;24460;-51
2021/07/11 09:57:36;;;;;;;2.40;2.30;;;;;;;;;;5071178;28;24438;-53
2021/07/11 10:00:04;;;;;;;2.60;2.40;;;;;;;;;;5074220;28;24944;-53
2021/07/11 10:02:29;;;;;;;3.25;3.10;;;;;;;;;;5070707;28;24406;-53
2021/07/11 10:04:54;;;;;;;3.47;3.27;;;;;;;;;;5073923;28;24414;-53
2021/07/11 10:07:20;;;;;;;2.50;2.40;;;;;;;;;;5071163;28;24453;-54
2021/07/11 10:09:45;;;;;;;2.90;2.80;;;;;;;;;;5073963;28;24551;-54
2021/07/11 10:12:11;;;;;;;3.40;3.20;;;;;;;;;;5073256;28;24464;-54
2021/07/11 10:14:37;;;;;;;3.00;2.80;;;;;;;;;;5083426;28;24938;-55
2021/07/11 10:17:03;;;;;;;2.90;2.80;;;;;;;;;;5083014;28;24437;-55
2021/07/11 10:19:28;;;;;;;2.60;2.50;;;;;;;;;;5077387;28;24549;-55
2021/07/11 10:21:53;;;;;;;3.10;2.90;;;;;;;;;;5075541;28;24513;-54
2021/07/11 10:24:21;;;;;;;2.90;2.80;;;;;;;;;;5077990;28;24457;-55
2021/07/11 10:26:46;;;;;;;3.30;3.10;;;;;;;;;;5074735;28;24510;-54
2021/07/11 10:29:11;;;;;;;3.60;3.40;;;;;;;;;;5089116;28;24898;-54
2021/07/11 10:31:40;;;;;;;3.27;3.07;;;;;;;;;;5083332;28;24435;-55
2021/07/11 10:34:05;;;;;;;2.90;2.70;;;;;;;;;;5079088;28;24925;-55
2021/07/11 10:36:32;;;;;;;2.97;2.87;;;;;;;;;;5099961;28;24999;-55
2021/07/11 10:38:58;;;;;;;2.70;2.60;;;;;;;;;;5093821;28;24406;-54
2021/07/11 10:41:23;;;;;;;2.92;2.72;;;;;;;;;;5088754;28;24410;-54
2021/07/11 10:44:02;;;;;;;2.67;2.57;;;;;;;;;;5091598;28;24479;-54
2021/07/11 10:46:30;;;;;;;3.30;3.10;;;;;;;;;;5103904;28;24421;-55
2021/07/11 10:48:56;;;;;;;2.70;2.60;;;;;;;;;;5090245;28;24510;-54
2021/07/11 10:51:21;;;;;;;2.72;2.63;;;;;;;;;;5069344;28;24534;-54
2021/07/11 10:53:46;;;;;;;2.90;2.80;;;;;;;;;;5069264;28;24386;-55
2021/07/11 10:56:18;;;;;;;2.63;2.53;;;;;;;;;;5073639;28;24423;-54
2021/07/11 10:58:47;;;;;;;2.90;2.80;;;;;;;;;;5088802;28;25025;-55
2021/07/11 11:01:19;;;;;;;3.17;2.97;;;;;;;;;;5090854;28;24437;-55
2021/07/11 11:03:49;;;;;;;2.60;2.50;;;;;;;;;;5110339;28;24510;-54
2021/07/11 11:06:14;;;;;;;3.10;3.00;;;;;;;;;;5109934;28;24406;-54
2021/07/11 11:08:42;;;;;;;2.83;2.70;;;;;;;;;;5092750;27;24425;-54
2021/07/11 11:11:07;;;;;;;3.35;3.15;;;;;;;;;;5089070;28;24457;-54
2021/07/11 11:13:33;;;;;;;3.00;2.90;;;;;;;;;;5089117;28;24399;-54
2021/07/11 11:15:59;;;;;;;3.25;3.05;;;;;;;;;;5072217;28;24967;-54
2021/07/11 11:18:30;;;;;;;3.40;3.20;;;;;;;;;;5068948;28;24970;-54
2021/07/11 11:21:03;;;;;;;3.40;3.20;;;;;;;;;;5078432;28;24430;-54
2021/07/11 11:23:32;;;;;;;3.30;3.10;;;;;;;;;;5087311;28;24412;-54
2021/07/11 11:25:58;;;;;;;3.72;3.53;;;;;;;;;;5076591;28;24430;-54
2021/07/11 11:28:33;;;;;;;3.30;3.10;;;;;;;;;;5068630;28;24833;-54
2021/07/11 11:31:18;;;;;;;3.10;3.00;;;;;;;;;;5076139;28;24489;-55
2021/07/11 11:33:51;;;;;;;3.30;3.10;;;;;;;;;;5068199;28;24424;-54
2021/07/11 11:36:17;;;;;;;3.33;3.13;;;;;;;;;;5083708;28;24445;-55
2021/07/11 11:38:43;;;;;;;2.83;2.72;;;;;;;;;;5088964;28;24927;-55
2021/07/11 11:41:15;;;;;;;2.90;2.70;;;;;;;;;;5084263;28;24410;-54
2021/07/11 11:43:41;;;;;;;2.80;2.70;;;;;;;;;;5088657;28;24394;-55
2021/07/11 11:46:06;;;;;;;3.20;3.00;;;;;;;;;;5072614;28;24434;-54
2021/07/11 11:48:31;;;;;;;2.95;2.85;;;;;;;;;;5088633;28;24398;-55
2021/07/11 11:51:01;;;;;;;3.30;3.10;;;;;;;;;;5081290;28;24485;-54
2021/07/11 11:53:26;;;;;;;3.50;3.20;;;;;;;;;;5068531;28;24390;-56
2021/07/11 11:55:52;;;;;;;3.30;3.10;;;;;;;;;;5074708;28;24467;-55
2021/07/11 11:58:24;;;;;;;3.20;3.00;;;;;;;;;;5071367;28;24438;-55
2021/07/11 12:00:58;;;;;;;3.10;2.90;;;;;;;;;;5068539;28;25051;-55
2021/07/11 12:03:23;;;;;;;3.42;3.22;;;;;;;;;;5068012;28;24440;-55
2021/07/11 12:05:48;;;;;;;3.00;2.80;;;;;;;;;;5084101;28;24422;-55
2021/07/11 12:08:13;;;;;;;3.40;3.30;;;;;;;;;;5074651;28;24533;-55
2021/07/11 12:10:40;;;;;;;3.13;3.03;;;;;;;;;;5068596;28;25341;-55
2021/07/11 12:13:34;;;;;;;3.47;3.17;;;;;;;;;;5083565;28;25216;-55
2021/07/11 12:16:07;;;;;;;3.30;3.10;;;;;;;;;;5068397;28;24819;-55
2021/07/11 12:18:46;;;;;;;3.22;3.03;;;;;;;;;;5067959;28;25171;-55
2021/07/11 12:21:12;;;;;;;3.63;3.42;;;;;;;;;;5075302;28;24421;-54
2021/07/11 12:23:39;;;;;;;3.38;3.17;;;;;;;;;;5067308;28;21379;-54
2021/07/11 12:26:06;;;;;;;3.30;3.10;;;;;;;;;;5068229;28;25065;-54
2021/07/11 12:28:32;;;;;;;3.30;3.10;;;;;;;;;;5065920;28;24959;-54
2021/07/11 12:30:58;;;;;;;3.30;3.20;;;;;;;;;;5066935;28;24427;-54
2021/07/11 12:33:27;;;;;;;2.73;2.63;;;;;;;;;;5073869;28;24464;-56
2021/07/11 12:35:58;;;;;;;3.10;2.90;;;;;;;;;;5069384;28;24406;-54
2021/07/11 12:38:29;;;;;;;3.20;3.00;;;;;;;;;;5078167;28;24963;-54
2021/07/11 12:40:56;;;;;;;3.50;3.30;;;;;;;;;;5072863;28;24466;-54
2021/07/11 12:43:28;;;;;;;2.88;2.67;;;;;;;;;;5071536;28;24419;-54
2021/07/11 12:46:04;;;;;;;3.03;2.83;;;;;;;;;;5078177;28;24545;-55
2021/07/11 12:48:56;;;;;;;3.40;3.20;;;;;;;;;;5076928;28;24983;-55
2021/07/11 12:51:29;;;;;;;3.00;2.90;;;;;;;;;;5062891;28;24556;-55
2021/07/11 12:54:01;;;;;;;3.63;3.42;;;;;;;;;;5072936;28;24447;-55
2021/07/11 12:56:29;;;;;;;3.60;3.30;;;;;;;;;;5079182;28;24418;-55
2021/07/11 12:59:01;;;;;;;3.80;3.60;;;;;;;;;;5077810;28;24472;-55
2021/07/11 13:01:26;;;;;;;3.85;3.55;;;;;;;;;;5088713;28;24804;-55
2021/07/11 13:04:02;;;;;;;3.50;3.30;;;;;;;;;;5083951;28;25102;-56
2021/07/11 13:06:34;;;;;;;3.20;3.10;;;;;;;;;;5067511;28;24766;-56
2021/07/11 13:08:59;;;;;;;3.70;3.50;;;;;;;;;;5073454;28;24546;-56
2021/07/11 13:11:25;;;;;;;3.50;3.30;;;;;;;;;;5071678;28;24985;-56
2021/07/11 13:13:50;;;;;;;3.70;3.40;;;;;;;;;;5088524;28;24452;-56
2021/07/11 13:16:15;;;;;;;3.70;3.50;;;;;;;;;;5083525;28;24458;-56
2021/07/11 13:18:40;;;;;;;3.77;3.57;;;;;;;;;;5069860;28;24434;-55
2021/07/11 13:21:26;;;;;;;3.85;3.60;;;;;;;;;;5077861;28;24418;-55
2021/07/11 13:23:51;;;;;;;3.60;3.40;;;;;;;;;;5072072;28;24484;-55
2021/07/11 13:26:16;;;;;;;3.30;3.10;;;;;;;;;;5082015;28;24434;-56
2021/07/11 13:28:41;;;;;;;3.35;3.15;;;;;;;;;;5068554;28;24568;-55
2021/07/11 13:31:07;;;;;;;3.40;3.20;;;;;;;;;;5064687;28;25485;-55
2021/07/11 13:33:32;;;;;;;2.80;2.70;;;;;;;;;;5080388;28;24472;-56
2021/07/11 13:35:57;;;;;;;3.70;3.50;;;;;;;;;;5073923;28;24447;-54
2021/07/11 13:38:22;;;;;;;3.45;3.15;;;;;;;;;;5077280;28;24419;-55
2021/07/11 13:40:47;;;;;;;3.60;3.40;;;;;;;;;;5070652;28;24509;-55
2021/07/11 13:43:13;;;;;;;3.57;3.37;;;;;;;;;;5070804;28;24419;-55
2021/07/11 13:45:40;;;;;;;2.97;2.80;;;;;;;;;;5084474;28;24422;-55
2021/07/11 13:48:06;;;;;;;3.58;3.38;;;;;;;;;;5088658;28;24463;-54
2021/07/11 13:50:31;;;;;;;3.70;3.40;;;;;;;;;;5077938;28;24438;-54
2021/07/11 13:52:56;;;;;;;3.63;3.43;;;;;;;;;;5071822;28;24516;-55
2021/07/11 13:55:21;;;;;;;4.18;3.78;;;;;;;;;;5081396;28;24426;-54
2021/07/11 13:57:47;;;;;;;3.80;3.60;;;;;;;;;;5070443;28;24482;-54
2021/07/11 14:00:13;;;;;;;3.70;3.50;;;;;;;;;;5079350;28;24418;-55
2021/07/11 14:02:38;;;;;;;3.70;3.40;;;;;;;;;;5075522;28;24827;-54
2021/07/11 14:05:04;;;;;;;3.70;3.40;;;;;;;;;;5076905;28;24425;-55
2021/07/11 14:07:29;;;;;;;3.90;3.70;;;;;;;;;;5070614;28;24952;-55
2021/07/11 14:09:54;;;;;;;3.60;3.40;;;;;;;;;;5083926;28;24487;-54
2021/07/11 14:12:20;;;;;;;4.07;3.77;;;;;;;;;;5068476;28;24423;-55
2021/07/11 14:14:46;;;;;;;4.20;3.90;;;;;;;;;;5073728;28;24472;-54
2021/07/11 14:17:11;;;;;;;3.35;3.15;;;;;;;;;;5082780;28;24441;-55
2021/07/11 14:19:36;;;;;;;3.50;3.30;;;;;;;;;;5077271;28;24423;-54
2021/07/11 14:22:01;;;;;;;3.60;3.40;;;;;;;;;;5081551;28;24802;-54
2021/07/11 14:24:26;;;;;;;3.80;3.50;;;;;;;;;;5087734;28;24468;-55
2021/07/11 14:26:52;;;;;;;4.00;3.80;;;;;;;;;;5087663;28;24999;-55
2021/07/11 14:29:17;;;;;;;3.80;3.60;;;;;;;;;;5085824;28;24496;-55
2021/07/11 14:31:43;;;;;;;3.95;3.67;;;;;;;;;;5086950;28;24525;-55